sensor_id;sensor_type;location;lat;lon;timestamp;P1;durP1;ratioP1;P2;durP2;ratioP2
16928;SDS011;8581;47.334;11.190;2023-03-14T00:00:36;3.17;;;2.30;;
16928;SDS011;8581;47.334;11.190;2023-03-14T00:03:07;2.63;;;2.10;;
16928;SDS011;8581;47.334;11.190;2023-03-14T00:05:39;3.30;;;2.43;;
16928;SDS011;8581;47.334;11.190;2023-03-14T00:08:10;4.40;;;2.43;;
16928;SDS011;8581;47.334;11.190;2023-03-14T00:10:42;2.53;;;2.30;;
16928;SDS011;8581;47.334;11.190;2023-03-14T00:13:13;5.93;;;2.40;;
16928;SDS011;8581;47.334;11.190;2023-03-14T00:15:45;4.47;;;2.50;;
16928;SDS011;8581;47.334;11.190;2023-03-14T00:18:17;4.13;;;2.43;;
16928;SDS011;8581;47.334;11.190;2023-03-14T00:20:48;3.70;;;2.80;;
16928;SDS011;8581;47.334;11.190;2023-03-14T00:23:20;3.00;;;2.53;;
16928;SDS011;8581;47.334;11.190;2023-03-14T00:25:51;4.33;;;2.40;;
16928;SDS011;8581;47.334;11.190;2023-03-14T00:28:23;3.83;;;2.80;;
16928;SDS011;8581;47.334;11.190;2023-03-14T00:30:55;4.60;;;2.80;;
16928;SDS011;8581;47.334;11.190;2023-03-14T00:33:26;2.40;;;2.20;;
16928;SDS011;8581;47.334;11.190;2023-03-14T00:35:59;3.07;;;2.53;;
16928;SDS011;8581;47.334;11.190;2023-03-14T00:38:31;3.27;;;2.30;;
16928;SDS011;8581;47.334;11.190;2023-03-14T00:41:03;2.57;;;2.30;;
16928;SDS011;8581;47.334;11.190;2023-03-14T00:43:34;4.57;;;2.73;;
16928;SDS011;8581;47.334;11.190;2023-03-14T00:46:06;3.67;;;2.50;;
16928;SDS011;8581;47.334;11.190;2023-03-14T00:48:38;4.03;;;2.37;;
16928;SDS011;8581;47.334;11.190;2023-03-14T00:51:09;3.47;;;2.70;;
16928;SDS011;8581;47.334;11.190;2023-03-14T00:53:41;4.67;;;2.50;;
16928;SDS011;8581;47.334;11.190;2023-03-14T00:56:12;4.03;;;2.40;;
16928;SDS011;8581;47.334;11.190;2023-03-14T00:58:44;3.20;;;2.20;;
16928;SDS011;8581;47.334;11.190;2023-03-14T01:01:16;3.70;;;2.70;;
16928;SDS011;8581;47.334;11.190;2023-03-14T01:03:47;2.97;;;2.30;;
16928;SDS011;8581;47.334;11.190;2023-03-14T01:06:20;2.70;;;2.33;;
16928;SDS011;8581;47.334;11.190;2023-03-14T01:08:51;4.07;;;2.17;;
16928;SDS011;8581;47.334;11.190;2023-03-14T01:11:25;2.87;;;2.13;;
16928;SDS011;8581;47.334;11.190;2023-03-14T01:13:58;3.50;;;2.60;;
16928;SDS011;8581;47.334;11.190;2023-03-14T01:16:31;5.13;;;2.43;;
16928;SDS011;8581;47.334;11.190;2023-03-14T01:19:01;2.90;;;2.40;;
16928;SDS011;8581;47.334;11.190;2023-03-14T01:21:33;5.10;;;2.60;;
16928;SDS011;8581;47.334;11.190;2023-03-14T01:24:04;3.73;;;2.30;;
16928;SDS011;8581;47.334;11.190;2023-03-14T01:26:36;2.53;;;2.00;;
16928;SDS011;8581;47.334;11.190;2023-03-14T01:29:08;3.30;;;2.37;;
16928;SDS011;8581;47.334;11.190;2023-03-14T01:31:40;2.33;;;2.13;;
16928;SDS011;8581;47.334;11.190;2023-03-14T01:34:11;3.63;;;2.30;;
16928;SDS011;8581;47.334;11.190;2023-03-14T01:36:43;3.43;;;2.20;;
16928;SDS011;8581;47.334;11.190;2023-03-14T01:39:14;4.77;;;2.20;;
16928;SDS011;8581;47.334;11.190;2023-03-14T01:41:46;3.87;;;2.33;;
16928;SDS011;8581;47.334;11.190;2023-03-14T01:44:18;3.23;;;2.30;;
16928;SDS011;8581;47.334;11.190;2023-03-14T01:46:49;4.50;;;2.30;;
16928;SDS011;8581;47.334;11.190;2023-03-14T01:49:23;4.93;;;2.50;;
16928;SDS011;8581;47.334;11.190;2023-03-14T01:51:56;2.63;;;2.10;;
16928;SDS011;8581;47.334;11.190;2023-03-14T01:54:32;3.43;;;2.10;;
16928;SDS011;8581;47.334;11.190;2023-03-14T01:57:08;2.43;;;1.90;;
16928;SDS011;8581;47.334;11.190;2023-03-14T01:59:40;2.90;;;2.00;;
16928;SDS011;8581;47.334;11.190;2023-03-14T02:02:12;5.10;;;1.97;;
16928;SDS011;8581;47.334;11.190;2023-03-14T02:04:43;5.10;;;1.90;;
16928;SDS011;8581;47.334;11.190;2023-03-14T02:07:17;3.97;;;2.30;;
16928;SDS011;8581;47.334;11.190;2023-03-14T02:09:48;2.50;;;2.07;;
16928;SDS011;8581;47.334;11.190;2023-03-14T02:12:19;3.33;;;1.80;;
16928;SDS011;8581;47.334;11.190;2023-03-14T02:14:50;3.10;;;1.90;;
16928;SDS011;8581;47.334;11.190;2023-03-14T02:17:23;4.33;;;2.47;;
16928;SDS011;8581;47.334;11.190;2023-03-14T02:20:03;4.10;;;1.97;;
16928;SDS011;8581;47.334;11.190;2023-03-14T02:22:36;3.13;;;2.00;;
16928;SDS011;8581;47.334;11.190;2023-03-14T02:25:08;2.43;;;1.80;;
16928;SDS011;8581;47.334;11.190;2023-03-14T02:27:46;2.60;;;2.20;;
16928;SDS011;8581;47.334;11.190;2023-03-14T02:30:23;2.60;;;1.77;;
16928;SDS011;8581;47.334;11.190;2023-03-14T02:32:55;1.70;;;1.60;;
16928;SDS011;8581;47.334;11.190;2023-03-14T02:35:27;2.20;;;2.00;;
16928;SDS011;8581;47.334;11.190;2023-03-14T02:40:50;1.97;;;1.70;;
16928;SDS011;8581;47.334;11.190;2023-03-14T02:43:22;2.00;;;1.73;;
16928;SDS011;8581;47.334;11.190;2023-03-14T02:45:54;1.50;;;1.40;;
16928;SDS011;8581;47.334;11.190;2023-03-14T02:48:26;1.60;;;1.50;;
16928;SDS011;8581;47.334;11.190;2023-03-14T02:50:59;9.97;;;7.17;;
16928;SDS011;8581;47.334;11.190;2023-03-14T02:53:30;1.77;;;1.67;;
16928;SDS011;8581;47.334;11.190;2023-03-14T02:56:01;3.17;;;1.90;;
16928;SDS011;8581;47.334;11.190;2023-03-14T02:58:32;1.73;;;1.47;;
16928;SDS011;8581;47.334;11.190;2023-03-14T03:01:04;1.73;;;1.50;;
16928;SDS011;8581;47.334;11.190;2023-03-14T03:03:37;3.17;;;1.57;;
16928;SDS011;8581;47.334;11.190;2023-03-14T03:06:08;2.10;;;1.40;;
16928;SDS011;8581;47.334;11.190;2023-03-14T03:08:40;1.83;;;1.37;;
16928;SDS011;8581;47.334;11.190;2023-03-14T03:11:11;1.50;;;1.07;;
16928;SDS011;8581;47.334;11.190;2023-03-14T03:13:43;1.87;;;1.00;;
16928;SDS011;8581;47.334;11.190;2023-03-14T03:16:15;2.07;;;0.97;;
16928;SDS011;8581;47.334;11.190;2023-03-14T03:18:46;1.00;;;0.90;;
16928;SDS011;8581;47.334;11.190;2023-03-14T03:21:18;0.90;;;0.80;;
16928;SDS011;8581;47.334;11.190;2023-03-14T03:23:50;0.97;;;0.87;;
16928;SDS011;8581;47.334;11.190;2023-03-14T03:26:21;3.13;;;1.10;;
16928;SDS011;8581;47.334;11.190;2023-03-14T03:28:53;1.43;;;0.93;;
16928;SDS011;8581;47.334;11.190;2023-03-14T03:31:25;1.10;;;0.77;;
16928;SDS011;8581;47.334;11.190;2023-03-14T03:33:56;0.83;;;0.70;;
16928;SDS011;8581;47.334;11.190;2023-03-14T03:36:28;1.20;;;0.80;;
16928;SDS011;8581;47.334;11.190;2023-03-14T03:38:59;0.80;;;0.80;;
16928;SDS011;8581;47.334;11.190;2023-03-14T03:41:31;1.07;;;0.67;;
16928;SDS011;8581;47.334;11.190;2023-03-14T03:44:03;0.80;;;0.80;;
16928;SDS011;8581;47.334;11.190;2023-03-14T03:46:35;1.77;;;0.80;;
16928;SDS011;8581;47.334;11.190;2023-03-14T03:49:06;1.20;;;1.10;;
16928;SDS011;8581;47.334;11.190;2023-03-14T03:51:39;1.10;;;0.90;;
16928;SDS011;8581;47.334;11.190;2023-03-14T03:54:09;1.00;;;0.90;;
16928;SDS011;8581;47.334;11.190;2023-03-14T03:56:41;0.73;;;0.73;;
16928;SDS011;8581;47.334;11.190;2023-03-14T03:59:13;0.50;;;0.50;;
16928;SDS011;8581;47.334;11.190;2023-03-14T04:01:44;0.83;;;0.70;;
16928;SDS011;8581;47.334;11.190;2023-03-14T04:04:16;1.70;;;0.40;;
16928;SDS011;8581;47.334;11.190;2023-03-14T04:06:47;0.80;;;0.60;;
16928;SDS011;8581;47.334;11.190;2023-03-14T04:09:19;3.17;;;0.50;;
16928;SDS011;8581;47.334;11.190;2023-03-14T04:11:50;0.80;;;0.60;;
16928;SDS011;8581;47.334;11.190;2023-03-14T04:14:22;2.63;;;0.60;;
16928;SDS011;8581;47.334;11.190;2023-03-14T04:16:54;0.70;;;0.50;;
16928;SDS011;8581;47.334;11.190;2023-03-14T04:19:25;1.27;;;0.70;;
16928;SDS011;8581;47.334;11.190;2023-03-14T04:21:57;0.80;;;0.60;;
16928;SDS011;8581;47.334;11.190;2023-03-14T04:24:28;3.20;;;0.70;;
16928;SDS011;8581;47.334;11.190;2023-03-14T04:27:00;2.30;;;0.70;;
16928;SDS011;8581;47.334;11.190;2023-03-14T04:29:32;4.70;;;0.70;;
16928;SDS011;8581;47.334;11.190;2023-03-14T04:32:03;1.27;;;0.60;;
16928;SDS011;8581;47.334;11.190;2023-03-14T04:34:49;0.53;;;0.53;;
16928;SDS011;8581;47.334;11.190;2023-03-14T04:37:24;1.87;;;0.97;;
16928;SDS011;8581;47.334;11.190;2023-03-14T04:39:56;1.10;;;1.00;;
16928;SDS011;8581;47.334;11.190;2023-03-14T04:42:27;1.10;;;1.00;;
16928;SDS011;8581;47.334;11.190;2023-03-14T04:44:59;1.53;;;1.00;;
16928;SDS011;8581;47.334;11.190;2023-03-14T04:47:31;0.87;;;0.80;;
16928;SDS011;8581;47.334;11.190;2023-03-14T04:50:02;1.23;;;0.90;;
16928;SDS011;8581;47.334;11.190;2023-03-14T04:52:34;1.60;;;1.20;;
16928;SDS011;8581;47.334;11.190;2023-03-14T04:55:06;1.43;;;0.90;;
16928;SDS011;8581;47.334;11.190;2023-03-14T04:57:38;2.33;;;1.40;;
16928;SDS011;8581;47.334;11.190;2023-03-14T05:00:10;2.27;;;1.30;;
16928;SDS011;8581;47.334;11.190;2023-03-14T05:02:42;1.67;;;1.50;;
16928;SDS011;8581;47.334;11.190;2023-03-14T05:05:14;1.83;;;1.50;;
16928;SDS011;8581;47.334;11.190;2023-03-14T05:07:45;1.93;;;1.73;;
16928;SDS011;8581;47.334;11.190;2023-03-14T05:10:17;1.80;;;1.50;;
16928;SDS011;8581;47.334;11.190;2023-03-14T05:12:49;3.27;;;2.03;;
16928;SDS011;8581;47.334;11.190;2023-03-14T05:15:20;2.67;;;1.93;;
16928;SDS011;8581;47.334;11.190;2023-03-14T05:17:52;3.17;;;1.67;;
16928;SDS011;8581;47.334;11.190;2023-03-14T05:20:23;2.57;;;1.90;;
16928;SDS011;8581;47.334;11.190;2023-03-14T05:22:55;3.03;;;2.33;;
16928;SDS011;8581;47.334;11.190;2023-03-14T05:25:27;3.13;;;1.97;;
16928;SDS011;8581;47.334;11.190;2023-03-14T05:27:58;1.50;;;1.40;;
16928;SDS011;8581;47.334;11.190;2023-03-14T05:30:30;1.37;;;1.27;;
16928;SDS011;8581;47.334;11.190;2023-03-14T05:33:01;1.70;;;1.60;;
16928;SDS011;8581;47.334;11.190;2023-03-14T05:35:33;2.13;;;1.93;;
16928;SDS011;8581;47.334;11.190;2023-03-14T05:38:05;2.40;;;2.20;;
16928;SDS011;8581;47.334;11.190;2023-03-14T05:40:36;2.80;;;2.03;;
16928;SDS011;8581;47.334;11.190;2023-03-14T05:43:08;2.37;;;2.10;;
16928;SDS011;8581;47.334;11.190;2023-03-14T05:45:40;3.00;;;2.07;;
16928;SDS011;8581;47.334;11.190;2023-03-14T05:48:11;3.33;;;2.10;;
16928;SDS011;8581;47.334;11.190;2023-03-14T05:50:43;2.27;;;1.90;;
16928;SDS011;8581;47.334;11.190;2023-03-14T05:53:14;2.07;;;1.40;;
16928;SDS011;8581;47.334;11.190;2023-03-14T05:55:46;0.80;;;0.80;;
16928;SDS011;8581;47.334;11.190;2023-03-14T05:58:17;0.80;;;0.80;;
16928;SDS011;8581;47.334;11.190;2023-03-14T06:00:49;0.90;;;0.90;;
16928;SDS011;8581;47.334;11.190;2023-03-14T06:03:21;1.70;;;0.90;;
16928;SDS011;8581;47.334;11.190;2023-03-14T06:05:52;1.40;;;1.30;;
16928;SDS011;8581;47.334;11.190;2023-03-14T06:08:24;0.90;;;0.90;;
16928;SDS011;8581;47.334;11.190;2023-03-14T06:10:56;2.13;;;1.30;;
16928;SDS011;8581;47.334;11.190;2023-03-14T06:13:27;1.40;;;1.30;;
16928;SDS011;8581;47.334;11.190;2023-03-14T06:15:59;1.77;;;1.57;;
16928;SDS011;8581;47.334;11.190;2023-03-14T06:18:30;1.40;;;1.30;;
16928;SDS011;8581;47.334;11.190;2023-03-14T06:21:02;2.13;;;1.50;;
16928;SDS011;8581;47.334;11.190;2023-03-14T06:23:33;1.63;;;1.53;;
16928;SDS011;8581;47.334;11.190;2023-03-14T06:26:05;1.80;;;1.70;;
16928;SDS011;8581;47.334;11.190;2023-03-14T06:28:37;1.40;;;1.30;;
16928;SDS011;8581;47.334;11.190;2023-03-14T06:31:08;2.93;;;1.17;;
16928;SDS011;8581;47.334;11.190;2023-03-14T06:33:40;1.53;;;1.10;;
16928;SDS011;8581;47.334;11.190;2023-03-14T06:36:11;1.80;;;1.30;;
16928;SDS011;8581;47.334;11.190;2023-03-14T06:38:43;0.90;;;0.90;;
16928;SDS011;8581;47.334;11.190;2023-03-14T06:41:15;0.80;;;0.80;;
16928;SDS011;8581;47.334;11.190;2023-03-14T06:43:46;0.93;;;0.83;;
16928;SDS011;8581;47.334;11.190;2023-03-14T06:46:18;0.70;;;0.70;;
16928;SDS011;8581;47.334;11.190;2023-03-14T06:48:49;2.37;;;1.00;;
16928;SDS011;8581;47.334;11.190;2023-03-14T06:51:21;1.57;;;1.20;;
16928;SDS011;8581;47.334;11.190;2023-03-14T06:53:53;1.10;;;1.00;;
16928;SDS011;8581;47.334;11.190;2023-03-14T06:56:24;2.70;;;2.00;;
16928;SDS011;8581;47.334;11.190;2023-03-14T06:58:56;3.27;;;1.40;;
16928;SDS011;8581;47.334;11.190;2023-03-14T07:01:28;2.87;;;2.40;;
16928;SDS011;8581;47.334;11.190;2023-03-14T07:03:59;3.60;;;2.70;;
16928;SDS011;8581;47.334;11.190;2023-03-14T07:06:31;2.50;;;2.30;;
16928;SDS011;8581;47.334;11.190;2023-03-14T07:09:02;2.80;;;2.50;;
16928;SDS011;8581;47.334;11.190;2023-03-14T07:11:34;2.10;;;2.00;;
16928;SDS011;8581;47.334;11.190;2023-03-14T07:14:05;2.93;;;1.60;;
16928;SDS011;8581;47.334;11.190;2023-03-14T07:16:37;2.07;;;1.50;;
16928;SDS011;8581;47.334;11.190;2023-03-14T07:19:09;1.83;;;1.60;;
16928;SDS011;8581;47.334;11.190;2023-03-14T07:21:40;2.00;;;1.80;;
16928;SDS011;8581;47.334;11.190;2023-03-14T07:24:12;1.80;;;1.60;;
16928;SDS011;8581;47.334;11.190;2023-03-14T07:26:43;1.70;;;1.60;;
16928;SDS011;8581;47.334;11.190;2023-03-14T07:29:15;1.40;;;1.30;;
16928;SDS011;8581;47.334;11.190;2023-03-14T07:31:47;1.30;;;1.20;;
16928;SDS011;8581;47.334;11.190;2023-03-14T07:34:18;1.60;;;1.50;;
16928;SDS011;8581;47.334;11.190;2023-03-14T07:36:50;3.80;;;2.40;;
16928;SDS011;8581;47.334;11.190;2023-03-14T07:39:21;2.87;;;2.47;;
16928;SDS011;8581;47.334;11.190;2023-03-14T07:41:53;5.33;;;3.50;;
16928;SDS011;8581;47.334;11.190;2023-03-14T07:44:24;3.07;;;2.60;;
16928;SDS011;8581;47.334;11.190;2023-03-14T07:46:56;3.20;;;2.10;;
16928;SDS011;8581;47.334;11.190;2023-03-14T07:49:29;2.93;;;2.00;;
16928;SDS011;8581;47.334;11.190;2023-03-14T07:52:01;2.40;;;2.20;;
16928;SDS011;8581;47.334;11.190;2023-03-14T07:54:32;2.00;;;1.80;;
16928;SDS011;8581;47.334;11.190;2023-03-14T07:57:04;2.30;;;2.10;;
16928;SDS011;8581;47.334;11.190;2023-03-14T07:59:35;2.10;;;1.90;;
16928;SDS011;8581;47.334;11.190;2023-03-14T08:02:09;2.10;;;1.90;;
16928;SDS011;8581;47.334;11.190;2023-03-14T08:04:39;2.10;;;1.63;;
16928;SDS011;8581;47.334;11.190;2023-03-14T08:07:10;1.47;;;1.37;;
16928;SDS011;8581;47.334;11.190;2023-03-14T08:09:45;2.27;;;2.07;;
16928;SDS011;8581;47.334;11.190;2023-03-14T08:12:16;1.77;;;1.60;;
16928;SDS011;8581;47.334;11.190;2023-03-14T08:14:48;2.60;;;1.70;;
16928;SDS011;8581;47.334;11.190;2023-03-14T08:17:20;1.40;;;1.30;;
16928;SDS011;8581;47.334;11.190;2023-03-14T08:19:51;0.97;;;0.90;;
16928;SDS011;8581;47.334;11.190;2023-03-14T08:22:23;0.87;;;0.87;;
16928;SDS011;8581;47.334;11.190;2023-03-14T08:24:55;0.97;;;0.70;;
16928;SDS011;8581;47.334;11.190;2023-03-14T08:27:29;0.93;;;0.93;;
16928;SDS011;8581;47.334;11.190;2023-03-14T08:30:01;0.60;;;0.60;;
16928;SDS011;8581;47.334;11.190;2023-03-14T08:32:32;0.57;;;0.57;;
16928;SDS011;8581;47.334;11.190;2023-03-14T08:35:04;0.50;;;0.50;;
16928;SDS011;8581;47.334;11.190;2023-03-14T08:37:36;0.77;;;0.60;;
16928;SDS011;8581;47.334;11.190;2023-03-14T08:40:08;0.70;;;0.70;;
16928;SDS011;8581;47.334;11.190;2023-03-14T08:42:40;0.70;;;0.70;;
16928;SDS011;8581;47.334;11.190;2023-03-14T08:45:13;0.70;;;0.70;;
16928;SDS011;8581;47.334;11.190;2023-03-14T08:47:44;0.53;;;0.53;;
16928;SDS011;8581;47.334;11.190;2023-03-14T08:50:15;0.50;;;0.50;;
16928;SDS011;8581;47.334;11.190;2023-03-14T08:52:47;0.60;;;0.60;;
16928;SDS011;8581;47.334;11.190;2023-03-14T08:55:18;0.50;;;0.50;;
16928;SDS011;8581;47.334;11.190;2023-03-14T08:57:50;1.50;;;1.30;;
16928;SDS011;8581;47.334;11.190;2023-03-14T09:00:21;1.10;;;0.70;;
16928;SDS011;8581;47.334;11.190;2023-03-14T09:02:56;0.70;;;0.70;;
16928;SDS011;8581;47.334;11.190;2023-03-14T09:05:33;0.50;;;0.50;;
16928;SDS011;8581;47.334;11.190;2023-03-14T09:08:14;0.60;;;0.60;;
16928;SDS011;8581;47.334;11.190;2023-03-14T09:10:46;0.67;;;0.60;;
16928;SDS011;8581;47.334;11.190;2023-03-14T09:13:18;1.27;;;1.17;;
16928;SDS011;8581;47.334;11.190;2023-03-14T09:15:51;3.20;;;1.80;;
16928;SDS011;8581;47.334;11.190;2023-03-14T09:18:22;1.80;;;1.70;;
16928;SDS011;8581;47.334;11.190;2023-03-14T09:20:54;1.23;;;1.13;;
16928;SDS011;8581;47.334;11.190;2023-03-14T09:23:27;1.37;;;1.27;;
16928;SDS011;8581;47.334;11.190;2023-03-14T09:26:04;1.13;;;1.00;;
16928;SDS011;8581;47.334;11.190;2023-03-14T09:28:36;0.60;;;0.60;;
16928;SDS011;8581;47.334;11.190;2023-03-14T09:31:08;0.60;;;0.60;;
16928;SDS011;8581;47.334;11.190;2023-03-14T09:33:39;0.40;;;0.40;;
16928;SDS011;8581;47.334;11.190;2023-03-14T09:36:11;0.40;;;0.40;;
16928;SDS011;8581;47.334;11.190;2023-03-14T09:38:43;0.43;;;0.43;;
16928;SDS011;8581;47.334;11.190;2023-03-14T09:41:21;0.30;;;0.30;;
16928;SDS011;8581;47.334;11.190;2023-03-14T09:43:58;0.30;;;0.30;;
16928;SDS011;8581;47.334;11.190;2023-03-14T09:46:37;0.30;;;0.30;;
16928;SDS011;8581;47.334;11.190;2023-03-14T09:49:10;0.20;;;0.20;;
16928;SDS011;8581;47.334;11.190;2023-03-14T09:51:56;0.40;;;0.40;;
16928;SDS011;8581;47.334;11.190;2023-03-14T09:54:49;0.13;;;0.13;;
16928;SDS011;8581;47.334;11.190;2023-03-14T09:57:19;0.20;;;0.20;;
16928;SDS011;8581;47.334;11.190;2023-03-14T09:59:51;0.20;;;0.20;;
16928;SDS011;8581;47.334;11.190;2023-03-14T10:02:23;0.37;;;0.13;;
16928;SDS011;8581;47.334;11.190;2023-03-14T10:04:53;0.20;;;0.20;;
16928;SDS011;8581;47.334;11.190;2023-03-14T10:07:29;0.23;;;0.23;;
16928;SDS011;8581;47.334;11.190;2023-03-14T10:10:00;0.30;;;0.30;;
16928;SDS011;8581;47.334;11.190;2023-03-14T10:12:33;1.03;;;0.60;;
16928;SDS011;8581;47.334;11.190;2023-03-14T10:15:06;0.23;;;0.23;;
16928;SDS011;8581;47.334;11.190;2023-03-14T10:17:41;1.43;;;0.33;;
16928;SDS011;8581;47.334;11.190;2023-03-14T10:20:30;0.40;;;0.40;;
16928;SDS011;8581;47.334;11.190;2023-03-14T10:23:05;0.47;;;0.47;;
16928;SDS011;8581;47.334;11.190;2023-03-14T10:25:36;0.40;;;0.40;;
16928;SDS011;8581;47.334;11.190;2023-03-14T10:28:11;0.50;;;0.40;;
16928;SDS011;8581;47.334;11.190;2023-03-14T10:30:44;0.30;;;0.30;;
16928;SDS011;8581;47.334;11.190;2023-03-14T10:33:26;0.40;;;0.30;;
16928;SDS011;8581;47.334;11.190;2023-03-14T10:36:00;0.33;;;0.27;;
16928;SDS011;8581;47.334;11.190;2023-03-14T10:38:32;0.10;;;0.10;;
16928;SDS011;8581;47.334;11.190;2023-03-14T10:41:14;0.30;;;0.20;;
16928;SDS011;8581;47.334;11.190;2023-03-14T10:43:36;0.10;;;0.10;;
16928;SDS011;8581;47.334;11.190;2023-03-14T10:46:09;0.20;;;0.20;;
16928;SDS011;8581;47.334;11.190;2023-03-14T10:48:40;0.10;;;0.10;;
16928;SDS011;8581;47.334;11.190;2023-03-14T10:51:24;0.00;;;0.00;;
16928;SDS011;8581;47.334;11.190;2023-03-14T10:54:03;0.00;;;0.00;;
16928;SDS011;8581;47.334;11.190;2023-03-14T10:56:35;0.30;;;0.30;;
16928;SDS011;8581;47.334;11.190;2023-03-14T10:59:10;0.80;;;0.80;;
16928;SDS011;8581;47.334;11.190;2023-03-14T11:01:40;0.60;;;0.60;;
16928;SDS011;8581;47.334;11.190;2023-03-14T11:04:20;1.63;;;0.70;;
16928;SDS011;8581;47.334;11.190;2023-03-14T11:06:56;1.00;;;0.60;;
16928;SDS011;8581;47.334;11.190;2023-03-14T11:09:42;0.73;;;0.70;;
16928;SDS011;8581;47.334;11.190;2023-03-14T11:12:34;0.63;;;0.50;;
16928;SDS011;8581;47.334;11.190;2023-03-14T11:15:08;0.60;;;0.60;;
16928;SDS011;8581;47.334;11.190;2023-03-14T11:17:46;0.60;;;0.60;;
16928;SDS011;8581;47.334;11.190;2023-03-14T11:20:25;0.60;;;0.60;;
16928;SDS011;8581;47.334;11.190;2023-03-14T11:22:59;0.90;;;0.83;;
16928;SDS011;8581;47.334;11.190;2023-03-14T11:25:32;0.60;;;0.60;;
16928;SDS011;8581;47.334;11.190;2023-03-14T11:28:08;0.60;;;0.60;;
16928;SDS011;8581;47.334;11.190;2023-03-14T11:30:50;1.07;;;0.80;;
16928;SDS011;8581;47.334;11.190;2023-03-14T11:33:27;0.60;;;0.60;;
16928;SDS011;8581;47.334;11.190;2023-03-14T11:36:02;0.40;;;0.40;;
16928;SDS011;8581;47.334;11.190;2023-03-14T11:38:38;0.73;;;0.50;;
16928;SDS011;8581;47.334;11.190;2023-03-14T11:41:14;0.50;;;0.50;;
16928;SDS011;8581;47.334;11.190;2023-03-14T11:43:43;2.23;;;0.57;;
16928;SDS011;8581;47.334;11.190;2023-03-14T11:46:16;0.60;;;0.50;;
16928;SDS011;8581;47.334;11.190;2023-03-14T11:48:57;0.40;;;0.40;;
16928;SDS011;8581;47.334;11.190;2023-03-14T11:51:36;0.60;;;0.60;;
16928;SDS011;8581;47.334;11.190;2023-03-14T11:54:16;0.43;;;0.43;;
16928;SDS011;8581;47.334;11.190;2023-03-14T11:56:53;0.40;;;0.40;;
16928;SDS011;8581;47.334;11.190;2023-03-14T11:59:27;1.03;;;0.50;;
16928;SDS011;8581;47.334;11.190;2023-03-14T12:02:24;0.40;;;0.40;;
16928;SDS011;8581;47.334;11.190;2023-03-14T12:05:34;0.63;;;0.50;;
16928;SDS011;8581;47.334;11.190;2023-03-14T12:10:55;0.63;;;0.50;;
16928;SDS011;8581;47.334;11.190;2023-03-14T12:13:28;0.50;;;0.50;;
16928;SDS011;8581;47.334;11.190;2023-03-14T12:15:59;0.87;;;0.60;;
16928;SDS011;8581;47.334;11.190;2023-03-14T12:18:33;0.93;;;0.70;;
16928;SDS011;8581;47.334;11.190;2023-03-14T12:21:05;0.50;;;0.50;;
16928;SDS011;8581;47.334;11.190;2023-03-14T12:23:45;0.77;;;0.70;;
16928;SDS011;8581;47.334;11.190;2023-03-14T12:26:28;0.50;;;0.50;;
16928;SDS011;8581;47.334;11.190;2023-03-14T12:29:14;0.97;;;0.40;;
16928;SDS011;8581;47.334;11.190;2023-03-14T12:31:48;0.60;;;0.60;;
16928;SDS011;8581;47.334;11.190;2023-03-14T12:37:10;0.57;;;0.57;;
16928;SDS011;8581;47.334;11.190;2023-03-14T12:42:51;0.57;;;0.57;;
16928;SDS011;8581;47.334;11.190;2023-03-14T12:45:33;0.30;;;0.30;;
16928;SDS011;8581;47.334;11.190;2023-03-14T12:48:10;0.33;;;0.33;;
16928;SDS011;8581;47.334;11.190;2023-03-14T12:50:42;2.10;;;0.30;;
16928;SDS011;8581;47.334;11.190;2023-03-14T12:56:11;1.30;;;0.50;;
16928;SDS011;8581;47.334;11.190;2023-03-14T12:58:44;0.50;;;0.50;;
16928;SDS011;8581;47.334;11.190;2023-03-14T13:01:16;0.60;;;0.60;;
16928;SDS011;8581;47.334;11.190;2023-03-14T13:03:50;0.40;;;0.40;;
16928;SDS011;8581;47.334;11.190;2023-03-14T13:06:55;0.40;;;0.40;;
16928;SDS011;8581;47.334;11.190;2023-03-14T13:12:13;0.40;;;0.20;;
16928;SDS011;8581;47.334;11.190;2023-03-14T13:14:45;0.20;;;0.20;;
16928;SDS011;8581;47.334;11.190;2023-03-14T13:17:16;0.30;;;0.30;;
16928;SDS011;8581;47.334;11.190;2023-03-14T13:19:50;0.40;;;0.40;;
16928;SDS011;8581;47.334;11.190;2023-03-14T13:22:26;0.20;;;0.20;;
16928;SDS011;8581;47.334;11.190;2023-03-14T13:25:02;0.20;;;0.20;;
16928;SDS011;8581;47.334;11.190;2023-03-14T13:27:36;0.20;;;0.20;;
16928;SDS011;8581;47.334;11.190;2023-03-14T13:30:16;0.30;;;0.23;;
16928;SDS011;8581;47.334;11.190;2023-03-14T13:32:49;0.10;;;0.10;;
16928;SDS011;8581;47.334;11.190;2023-03-14T13:35:24;0.47;;;0.47;;
16928;SDS011;8581;47.334;11.190;2023-03-14T13:37:59;0.30;;;0.20;;
16928;SDS011;8581;47.334;11.190;2023-03-14T13:40:31;0.40;;;0.30;;
16928;SDS011;8581;47.334;11.190;2023-03-14T13:43:03;0.20;;;0.20;;
16928;SDS011;8581;47.334;11.190;2023-03-14T13:45:41;0.27;;;0.27;;
16928;SDS011;8581;47.334;11.190;2023-03-14T13:48:07;0.20;;;0.20;;
16928;SDS011;8581;47.334;11.190;2023-03-14T13:50:37;0.20;;;0.20;;
16928;SDS011;8581;47.334;11.190;2023-03-14T13:53:10;0.20;;;0.10;;
16928;SDS011;8581;47.334;11.190;2023-03-14T13:55:40;0.20;;;0.20;;
16928;SDS011;8581;47.334;11.190;2023-03-14T13:58:13;0.00;;;0.00;;
16928;SDS011;8581;47.334;11.190;2023-03-14T14:01:02;0.10;;;0.10;;
16928;SDS011;8581;47.334;11.190;2023-03-14T14:03:36;0.73;;;0.57;;
16928;SDS011;8581;47.334;11.190;2023-03-14T14:06:08;2.37;;;1.40;;
16928;SDS011;8581;47.334;11.190;2023-03-14T14:08:40;0.60;;;0.60;;
16928;SDS011;8581;47.334;11.190;2023-03-14T14:11:14;1.13;;;0.90;;
16928;SDS011;8581;47.334;11.190;2023-03-14T14:13:42;0.20;;;0.20;;
16928;SDS011;8581;47.334;11.190;2023-03-14T14:16:14;0.97;;;0.40;;
16928;SDS011;8581;47.334;11.190;2023-03-14T14:18:45;0.10;;;0.10;;
16928;SDS011;8581;47.334;11.190;2023-03-14T14:21:17;0.10;;;0.10;;
16928;SDS011;8581;47.334;11.190;2023-03-14T14:23:48;0.20;;;0.20;;
16928;SDS011;8581;47.334;11.190;2023-03-14T14:26:20;0.43;;;0.40;;
16928;SDS011;8581;47.334;11.190;2023-03-14T14:29:05;0.10;;;0.10;;
16928;SDS011;8581;47.334;11.190;2023-03-14T14:31:37;0.10;;;0.10;;
16928;SDS011;8581;47.334;11.190;2023-03-14T14:36:47;0.00;;;0.00;;
16928;SDS011;8581;47.334;11.190;2023-03-14T14:39:21;0.10;;;0.10;;
16928;SDS011;8581;47.334;11.190;2023-03-14T14:41:52;0.00;;;0.00;;
16928;SDS011;8581;47.334;11.190;2023-03-14T14:44:39;0.10;;;0.00;;
16928;SDS011;8581;47.334;11.190;2023-03-14T14:47:12;0.20;;;0.20;;
16928;SDS011;8581;47.334;11.190;2023-03-14T14:49:43;0.50;;;0.30;;
16928;SDS011;8581;47.334;11.190;2023-03-14T14:52:16;0.10;;;0.10;;
16928;SDS011;8581;47.334;11.190;2023-03-14T14:54:52;0.10;;;0.10;;
16928;SDS011;8581;47.334;11.190;2023-03-14T14:57:27;0.20;;;0.20;;
16928;SDS011;8581;47.334;11.190;2023-03-14T15:00:01;0.00;;;0.00;;
16928;SDS011;8581;47.334;11.190;2023-03-14T15:02:38;0.00;;;0.00;;
16928;SDS011;8581;47.334;11.190;2023-03-14T15:05:13;0.00;;;0.00;;
16928;SDS011;8581;47.334;11.190;2023-03-14T15:07:45;0.00;;;0.00;;
16928;SDS011;8581;47.334;11.190;2023-03-14T15:10:19;0.20;;;0.20;;
16928;SDS011;8581;47.334;11.190;2023-03-14T15:12:49;0.10;;;0.10;;
16928;SDS011;8581;47.334;11.190;2023-03-14T15:15:20;0.20;;;0.20;;
16928;SDS011;8581;47.334;11.190;2023-03-14T15:17:52;0.10;;;0.10;;
16928;SDS011;8581;47.334;11.190;2023-03-14T15:20:23;0.00;;;0.00;;
16928;SDS011;8581;47.334;11.190;2023-03-14T15:22:55;0.30;;;0.20;;
16928;SDS011;8581;47.334;11.190;2023-03-14T15:25:27;0.10;;;0.10;;
16928;SDS011;8581;47.334;11.190;2023-03-14T15:27:58;0.20;;;0.20;;
16928;SDS011;8581;47.334;11.190;2023-03-14T15:30:30;0.13;;;0.13;;
16928;SDS011;8581;47.334;11.190;2023-03-14T15:33:01;0.10;;;0.10;;
16928;SDS011;8581;47.334;11.190;2023-03-14T15:35:33;0.40;;;0.40;;
16928;SDS011;8581;47.334;11.190;2023-03-14T15:38:05;0.20;;;0.20;;
16928;SDS011;8581;47.334;11.190;2023-03-14T15:40:36;0.20;;;0.10;;
16928;SDS011;8581;47.334;11.190;2023-03-14T15:43:08;0.20;;;0.20;;